createdAt,value
2023-03-27T00:01:35.964Z,5.50
2023-03-27T00:04:04.372Z,5.50
2023-03-27T00:06:34.550Z,5.40
2023-03-27T00:09:05.421Z,5.50
2023-03-27T00:11:33.502Z,5.50
2023-03-27T00:14:02.099Z,5.50
2023-03-27T00:16:30.580Z,5.40
2023-03-27T00:19:00.778Z,5.40
2023-03-27T00:21:29.336Z,5.30
2023-03-27T00:23:57.459Z,5.30
2023-03-27T00:26:25.880Z,5.40
2023-03-27T00:28:54.869Z,5.40
2023-03-27T00:31:23.157Z,5.20
2023-03-27T00:33:51.433Z,5.10
2023-03-27T00:36:21.260Z,5.10
2023-03-27T00:38:53.084Z,5.00
2023-03-27T00:41:21.855Z,5.00
2023-03-27T00:43:52.232Z,5.00
2023-03-27T00:46:32.006Z,4.80
2023-03-27T00:49:02.916Z,4.80
2023-03-27T00:51:33.291Z,4.80
2023-03-27T00:54:01.941Z,4.70
2023-03-27T00:56:30.998Z,4.60
2023-03-27T00:59:02.426Z,4.40
2023-03-27T01:01:32.360Z,4.40
2023-03-27T01:04:03.943Z,4.40
2023-03-27T01:06:34.053Z,4.30
2023-03-27T01:09:02.169Z,4.30
2023-03-27T01:11:41.788Z,4.10
2023-03-27T01:14:16.982Z,4.20
2023-03-27T01:16:53.408Z,4.20
2023-03-27T01:19:55.271Z,4.10
2023-03-27T01:22:58.333Z,4.10
2023-03-27T01:25:59.387Z,4.20
2023-03-27T01:28:41.406Z,3.90
2023-03-27T01:31:31.872Z,4.00
2023-03-27T01:34:15.676Z,3.90
2023-03-27T01:37:13.651Z,3.70
2023-03-27T01:39:54.883Z,3.60
2023-03-27T01:42:27.253Z,3.80
2023-03-27T01:45:02.897Z,3.90
2023-03-27T01:47:41.422Z,3.90
2023-03-27T01:50:17.973Z,3.90
2023-03-27T01:52:54.116Z,3.70
2023-03-27T01:55:29.234Z,3.70
2023-03-27T01:58:03.564Z,3.70
2023-03-27T02:00:50.956Z,3.60
2023-03-27T02:03:24.013Z,3.40
2023-03-27T02:05:56.813Z,3.40
2023-03-27T02:08:31.540Z,3.40
2023-03-27T02:11:01.550Z,3.50
2023-03-27T02:13:36.402Z,3.50
2023-03-27T02:16:07.247Z,3.50
2023-03-27T02:18:39.735Z,3.40
2023-03-27T02:21:09.259Z,3.40
2023-03-27T02:23:38.831Z,3.40
2023-03-27T02:26:12.503Z,3.30
2023-03-27T02:29:14.425Z,3.20
2023-03-27T02:31:55.770Z,3.30
2023-03-27T02:34:44.447Z,3.20
2023-03-27T02:37:22.472Z,3.10
2023-03-27T02:40:13.972Z,3.30
2023-03-27T02:42:54.905Z,3.00
2023-03-27T02:45:28.072Z,2.90
2023-03-27T02:48:00.353Z,2.90
2023-03-27T02:50:34.366Z,3.00
2023-03-27T02:53:06.480Z,2.90
2023-03-27T02:55:38.523Z,2.80
2023-03-27T02:58:12.406Z,2.70
2023-03-27T03:00:48.839Z,2.80
2023-03-27T03:03:22.351Z,2.80
2023-03-27T03:05:50.934Z,2.80
2023-03-27T03:08:21.962Z,2.80
2023-03-27T03:10:50.802Z,2.70
2023-03-27T03:13:20.470Z,2.60
2023-03-27T03:15:50.505Z,2.60
2023-03-27T03:18:19.128Z,2.40
2023-03-27T03:20:47.229Z,2.50
2023-03-27T03:23:15.611Z,2.50
2023-03-27T03:25:44.755Z,2.50
2023-03-27T03:28:13.058Z,2.50
2023-03-27T03:30:45.626Z,2.40
2023-03-27T03:33:14.302Z,2.40
2023-03-27T03:35:43.289Z,2.40
2023-03-27T03:38:11.444Z,2.40
2023-03-27T03:40:39.861Z,2.40
2023-03-27T03:43:08.251Z,2.30
2023-03-27T03:45:36.629Z,2.20
2023-03-27T03:48:06.988Z,2.10
2023-03-27T03:50:35.132Z,2.20
2023-03-27T03:53:03.418Z,2.20
2023-03-27T03:55:31.502Z,2.20
2023-03-27T03:57:59.651Z,2.40
2023-03-27T04:00:28.380Z,2.30
2023-03-27T04:02:57.399Z,2.30
2023-03-27T04:05:27.106Z,2.20
2023-03-27T04:07:55.585Z,2.20
2023-03-27T04:10:23.801Z,2.10
2023-03-27T04:12:52.406Z,2.20
2023-03-27T04:15:20.958Z,1.80
2023-03-27T04:17:49.489Z,1.90
2023-03-27T04:20:18.389Z,1.90
2023-03-27T04:22:51.314Z,2.00
2023-03-27T04:25:22.508Z,2.00
2023-03-27T04:27:52.349Z,2.10
2023-03-27T04:30:23.423Z,2.00
2023-03-27T04:32:52.583Z,1.90
2023-03-27T04:35:21.853Z,1.90
2023-03-27T04:37:51.382Z,1.90
2023-03-27T04:40:19.555Z,1.80
2023-03-27T04:42:48.113Z,1.90
2023-03-27T04:45:20.202Z,1.90
2023-03-27T04:47:49.111Z,1.70
2023-03-27T04:50:17.614Z,1.50
2023-03-27T04:52:48.416Z,1.60
2023-03-27T04:55:19.724Z,1.50
2023-03-27T04:57:48.635Z,1.50
2023-03-27T05:00:19.361Z,1.50
2023-03-27T05:02:49.063Z,1.50
2023-03-27T05:05:18.457Z,1.50
2023-03-27T05:07:47.405Z,1.50
2023-03-27T05:10:21.855Z,1.50
2023-03-27T05:12:53.389Z,1.50
2023-03-27T05:15:22.348Z,1.60
2023-03-27T05:17:54.320Z,1.50
2023-03-27T05:20:23.581Z,1.40
2023-03-27T05:22:54.668Z,1.50
2023-03-27T05:25:22.832Z,1.50
2023-03-27T05:27:54.392Z,1.70
2023-03-27T05:30:24.313Z,1.80
2023-03-27T05:32:53.702Z,1.80
2023-03-27T05:35:24.390Z,1.90
2023-03-27T05:37:54.722Z,2.10
2023-03-27T05:40:25.141Z,2.30
2023-03-27T05:42:56.179Z,2.30
2023-03-27T05:45:25.317Z,2.60
2023-03-27T05:47:55.077Z,3.20
2023-03-27T05:50:26.812Z,3.20
2023-03-27T05:52:59.068Z,3.60
2023-03-27T05:55:28.052Z,3.20
2023-03-27T05:57:57.903Z,3.70
2023-03-27T06:00:27.475Z,4.10
2023-03-27T06:02:57.474Z,4.30
2023-03-27T06:05:26.729Z,4.40
2023-03-27T06:07:56.220Z,4.40
2023-03-27T06:10:24.315Z,5.00
2023-03-27T06:13:03.109Z,4.80
2023-03-27T06:15:31.525Z,4.90
2023-03-27T06:17:59.717Z,4.80
2023-03-27T06:20:28.170Z,4.90
2023-03-27T06:22:59.479Z,5.40
2023-03-27T06:25:32.108Z,4.90
2023-03-27T06:28:02.401Z,5.00
2023-03-27T06:30:31.321Z,5.60
2023-03-27T06:33:00.832Z,4.90
2023-03-27T06:35:31.099Z,7.30
2023-03-27T06:38:00.145Z,6.30
2023-03-27T06:40:30.132Z,6.20
2023-03-27T06:42:59.976Z,6.90
2023-03-27T06:45:31.692Z,6.40
2023-03-27T06:48:13.603Z,7.20
2023-03-27T06:50:49.628Z,7.50
2023-03-27T06:53:27.212Z,7.40
2023-03-27T06:55:57.494Z,7.10
2023-03-27T06:58:25.884Z,7.60
2023-03-27T07:00:55.662Z,7.10
2023-03-27T07:03:24.347Z,7.10
2023-03-27T07:05:52.649Z,7.90
2023-03-27T07:08:24.903Z,8.70
2023-03-27T07:11:10.015Z,7.90
2023-03-27T07:13:41.093Z,8.40
2023-03-27T07:16:12.438Z,8.30
2023-03-27T07:18:41.924Z,9.00
2023-03-27T07:21:10.586Z,8.70
2023-03-27T07:23:38.663Z,9.30
2023-03-27T07:26:07.942Z,8.80
2023-03-27T07:28:38.491Z,9.40
2023-03-27T07:31:25.879Z,9.40
2023-03-27T07:34:01.487Z,8.60
2023-03-27T07:36:29.942Z,10.00
2023-03-27T07:38:58.362Z,9.90
2023-03-27T07:41:26.452Z,9.60
2023-03-27T07:43:55.037Z,9.50
2023-03-27T07:46:25.790Z,9.80
2023-03-27T07:48:55.554Z,10.40
2023-03-27T07:51:24.142Z,10.00
2023-03-27T07:53:58.391Z,10.30
2023-03-27T07:56:27.119Z,10.10
2023-03-27T07:58:55.361Z,10.00
2023-03-27T08:01:25.931Z,9.90
2023-03-27T08:03:54.910Z,9.40
2023-03-27T08:06:23.148Z,10.00
2023-03-27T08:08:52.196Z,10.10
2023-03-27T08:11:30.069Z,9.90
2023-03-27T08:13:59.243Z,10.00
2023-03-27T08:16:29.985Z,11.10
2023-03-27T08:18:59.039Z,11.20
2023-03-27T08:21:27.134Z,12.20
2023-03-27T08:23:57.358Z,11.50
2023-03-27T08:26:26.535Z,11.30
2023-03-27T08:28:56.230Z,11.50
2023-03-27T08:31:26.003Z,12.10
2023-03-27T08:33:55.542Z,11.50
2023-03-27T08:36:23.777Z,10.80
2023-03-27T08:38:55.542Z,10.90
2023-03-27T08:41:30.555Z,10.70
2023-03-27T08:44:03.766Z,10.40
2023-03-27T08:46:37.625Z,10.80
2023-03-27T08:49:13.182Z,11.40
2023-03-27T08:51:47.080Z,11.60
2023-03-27T08:54:18.758Z,11.50
2023-03-27T08:56:48.204Z,11.20
2023-03-27T08:59:19.734Z,10.80
2023-03-27T09:01:53.515Z,11.70
2023-03-27T09:04:33.128Z,11.20
2023-03-27T09:07:05.886Z,11.80
2023-03-27T09:09:46.759Z,12.10
2023-03-27T09:12:41.054Z,11.20
2023-03-27T09:15:13.169Z,11.50
2023-03-27T09:17:47.549Z,11.50
2023-03-27T09:20:21.902Z,12.30
2023-03-27T09:22:54.786Z,12.10
2023-03-27T09:25:27.564Z,12.10
2023-03-27T09:27:56.231Z,11.80
2023-03-27T09:30:27.727Z,11.10
2023-03-27T09:32:59.194Z,10.50
2023-03-27T09:35:28.857Z,10.60
2023-03-27T09:38:01.519Z,11.40
2023-03-27T09:40:44.579Z,11.50
2023-03-27T09:43:18.351Z,11.20
2023-03-27T09:45:49.208Z,11.40
2023-03-27T09:48:27.713Z,11.30
2023-03-27T09:50:57.342Z,11.70
2023-03-27T09:53:27.933Z,12.10
2023-03-27T09:55:59.636Z,12.10
2023-03-27T09:58:39.694Z,12.30
2023-03-27T10:01:13.468Z,11.80
2023-03-27T10:03:45.017Z,11.40
2023-03-27T10:06:26.196Z,11.50
2023-03-27T10:08:55.790Z,12.20
2023-03-27T10:11:27.336Z,12.40
2023-03-27T10:13:56.813Z,12.60
2023-03-27T10:16:25.272Z,11.60
2023-03-27T10:18:56.883Z,11.60
2023-03-27T10:24:04.174Z,10.40
2023-03-27T10:26:34.106Z,9.60
2023-03-27T10:29:10.157Z,8.60
2023-03-27T10:31:39.819Z,7.70
2023-03-27T10:34:28.728Z,8.20
2023-03-27T10:36:58.524Z,8.10
2023-03-27T10:39:29.698Z,7.90
2023-03-27T10:41:58.244Z,8.20
2023-03-27T10:44:28.555Z,7.20
2023-03-27T10:46:57.896Z,7.60
2023-03-27T10:49:33.265Z,8.40
2023-03-27T10:52:14.590Z,8.90
2023-03-27T10:54:51.154Z,8.70
2023-03-27T10:57:23.496Z,9.50
2023-03-27T10:59:58.699Z,9.70
2023-03-27T11:02:32.841Z,10.10
2023-03-27T11:05:05.579Z,9.90
2023-03-27T11:07:40.852Z,9.50
2023-03-27T11:10:15.878Z,9.60
2023-03-27T11:12:51.908Z,9.30
2023-03-27T11:15:24.434Z,8.80
2023-03-27T11:17:58.981Z,8.60
2023-03-27T11:20:32.672Z,8.60
2023-03-27T11:23:07.812Z,8.70
2023-03-27T11:25:41.094Z,9.20
2023-03-27T11:28:20.969Z,8.80
2023-03-27T11:30:53.137Z,9.10
2023-03-27T11:33:38.486Z,8.70
2023-03-27T11:36:37.629Z,8.90
2023-03-27T11:39:22.706Z,8.90
2023-03-27T11:41:54.262Z,8.90
2023-03-27T11:44:23.452Z,9.00
2023-03-27T11:47:26.197Z,9.00
2023-03-27T11:50:11.579Z,9.00
2023-03-27T11:52:49.040Z,9.20
2023-03-27T11:55:29.045Z,9.40
2023-03-27T11:58:10.942Z,9.30
2023-03-27T12:00:45.362Z,9.10
2023-03-27T12:03:28.894Z,9.80
2023-03-27T12:06:05.831Z,9.50
2023-03-27T12:08:49.956Z,9.70
2023-03-27T12:11:22.190Z,9.90
2023-03-27T12:14:18.382Z,10.00
2023-03-27T12:17:03.194Z,10.20
2023-03-27T12:19:54.226Z,10.10
2023-03-27T12:22:31.480Z,10.20
2023-03-27T12:25:49.401Z,10.00
2023-03-27T12:28:34.973Z,10.50
2023-03-27T12:31:19.347Z,10.80
2023-03-27T12:33:56.208Z,10.30
2023-03-27T12:36:28.388Z,10.50
2023-03-27T12:38:57.124Z,10.50
2023-03-27T12:41:27.132Z,10.20
2023-03-27T12:43:58.975Z,10.40
2023-03-27T12:46:39.092Z,10.10
2023-03-27T12:49:50.939Z,10.10
2023-03-27T12:52:19.937Z,10.30
2023-03-27T12:55:07.813Z,10.20
2023-03-27T12:57:44.765Z,9.90
2023-03-27T13:00:24.075Z,9.70
2023-03-27T13:03:09.781Z,9.60
2023-03-27T13:06:03.949Z,9.40
2023-03-27T13:08:57.432Z,9.40
2023-03-27T13:11:39.349Z,9.30
2023-03-27T13:14:33.975Z,9.00
2023-03-27T13:17:16.172Z,8.90
2023-03-27T13:19:54.386Z,8.90
2023-03-27T13:22:36.972Z,8.40
2023-03-27T13:25:23.526Z,8.30
2023-03-27T13:28:14.082Z,8.30
2023-03-27T13:30:48.534Z,8.80
2023-03-27T13:33:24.186Z,8.80
2023-03-27T13:36:04.148Z,8.50
2023-03-27T13:38:48.421Z,8.60
2023-03-27T13:41:53.123Z,8.60
2023-03-27T13:44:28.422Z,8.70
2023-03-27T13:47:03.467Z,8.80
2023-03-27T13:49:56.127Z,9.10
2023-03-27T13:52:36.948Z,9.00
2023-03-27T13:55:38.499Z,8.80
2023-03-27T13:58:23.281Z,8.90
2023-03-27T14:01:08.309Z,9.10
2023-03-27T14:04:01.522Z,8.80
2023-03-27T14:07:08.581Z,9.00
2023-03-27T14:10:07.130Z,9.00
2023-03-27T14:12:49.600Z,9.10
2023-03-27T14:15:46.297Z,8.50
2023-03-27T14:18:52.312Z,6.90
2023-03-27T14:21:35.637Z,6.80
2023-03-27T14:24:10.977Z,6.70
2023-03-27T14:26:45.395Z,6.40
2023-03-27T14:29:15.542Z,7.10
2023-03-27T14:31:44.598Z,7.40
2023-03-27T14:34:22.441Z,7.50
2023-03-27T14:36:52.091Z,7.60
2023-03-27T14:39:23.657Z,7.60
2023-03-27T14:41:57.493Z,7.40
2023-03-27T14:44:26.894Z,7.30
2023-03-27T14:47:00.675Z,7.40
2023-03-27T14:49:36.443Z,7.10
2023-03-27T14:52:07.862Z,7.10
2023-03-27T14:54:48.522Z,7.40
2023-03-27T14:57:26.344Z,7.30
2023-03-27T14:59:55.551Z,7.20
2023-03-27T15:02:29.301Z,7.40
2023-03-27T15:05:01.315Z,7.50
2023-03-27T15:07:35.084Z,7.20
2023-03-27T15:10:17.849Z,7.30
2023-03-27T15:12:47.717Z,7.50
2023-03-27T15:15:24.945Z,7.60
2023-03-27T15:17:55.907Z,7.90
2023-03-27T15:20:28.334Z,8.00
2023-03-27T15:23:01.751Z,7.60
2023-03-27T15:25:37.205Z,7.70
2023-03-27T15:28:13.411Z,7.70
2023-03-27T15:30:46.044Z,8.00
2023-03-27T15:33:20.364Z,7.90
2023-03-27T15:35:52.670Z,7.80
2023-03-27T15:38:28.811Z,7.70
2023-03-27T15:41:03.126Z,7.30
2023-03-27T15:43:34.765Z,7.20
2023-03-27T15:46:14.492Z,7.10
2023-03-27T15:48:45.411Z,7.20
2023-03-27T15:51:15.031Z,7.20
2023-03-27T15:53:46.344Z,7.40
2023-03-27T15:56:23.102Z,7.60
2023-03-27T15:58:55.626Z,7.50
2023-03-27T16:01:28.752Z,7.70
2023-03-27T16:04:02.396Z,8.10
2023-03-27T16:06:36.605Z,7.50
2023-03-27T16:09:06.093Z,7.50
2023-03-27T16:11:42.816Z,7.40
2023-03-27T16:14:45.251Z,7.10
2023-03-27T16:17:25.115Z,6.90
2023-03-27T16:19:56.077Z,7.50
2023-03-27T16:22:25.709Z,7.40
2023-03-27T16:24:55.012Z,7.10
2023-03-27T16:27:24.906Z,6.90
2023-03-27T16:29:55.395Z,7.00
2023-03-27T16:32:24.273Z,6.90
2023-03-27T16:34:52.916Z,6.80
2023-03-27T16:37:24.866Z,6.80
2023-03-27T16:39:53.687Z,6.90
2023-03-27T16:42:26.240Z,6.80
2023-03-27T16:44:56.069Z,7.00
2023-03-27T16:47:24.856Z,7.20
2023-03-27T16:50:08.048Z,7.10
2023-03-27T16:52:38.909Z,7.00
2023-03-27T16:55:08.213Z,7.00
2023-03-27T16:57:36.396Z,6.90
2023-03-27T17:00:07.932Z,6.80
2023-03-27T17:02:37.113Z,6.60
2023-03-27T17:05:06.005Z,6.40
2023-03-27T17:07:34.295Z,6.60
2023-03-27T17:10:03.712Z,6.50
2023-03-27T17:12:32.343Z,6.60
2023-03-27T17:15:00.596Z,6.50
2023-03-27T17:17:30.604Z,6.30
2023-03-27T17:19:59.471Z,6.30
2023-03-27T17:22:29.948Z,6.40
2023-03-27T17:25:01.328Z,6.40
2023-03-27T17:27:29.738Z,6.10
2023-03-27T17:29:57.858Z,5.90
2023-03-27T17:32:26.948Z,5.70
2023-03-27T17:34:56.929Z,5.60
2023-03-27T17:37:25.981Z,5.50
2023-03-27T17:39:54.190Z,5.50
2023-03-27T17:42:22.444Z,5.80
2023-03-27T17:44:50.875Z,5.70
2023-03-27T17:47:18.957Z,5.80
2023-03-27T17:49:47.363Z,5.80
2023-03-27T17:52:17.174Z,5.80
2023-03-27T17:54:45.635Z,5.70
2023-03-27T17:57:14.073Z,5.60
2023-03-27T17:59:42.516Z,5.70
2023-03-27T18:02:17.510Z,5.60
2023-03-27T18:04:48.149Z,5.50
2023-03-27T18:07:17.605Z,5.50
2023-03-27T18:09:46.548Z,5.40
2023-03-27T18:12:16.820Z,5.30
2023-03-27T18:14:45.236Z,5.30
2023-03-27T18:17:15.983Z,5.40
2023-03-27T18:19:44.162Z,5.30
2023-03-27T18:22:12.250Z,5.20
2023-03-27T18:24:44.054Z,5.00
2023-03-27T18:27:12.603Z,4.90
2023-03-27T18:29:40.854Z,5.00
2023-03-27T18:32:09.190Z,5.10
2023-03-27T18:34:37.704Z,5.10
2023-03-27T18:37:05.912Z,5.00
2023-03-27T18:39:37.498Z,5.10
2023-03-27T18:42:08.765Z,4.90
2023-03-27T18:44:39.101Z,5.00
2023-03-27T18:47:08.991Z,4.80
2023-03-27T18:49:38.958Z,4.60
2023-03-27T18:52:07.160Z,4.60
2023-03-27T18:54:37.079Z,4.60
2023-03-27T18:57:06.979Z,4.60
2023-03-27T18:59:35.187Z,4.50
2023-03-27T19:02:03.546Z,4.40
2023-03-27T19:04:31.821Z,4.30
2023-03-27T19:06:59.970Z,4.40
2023-03-27T19:09:40.806Z,4.40
2023-03-27T19:12:11.594Z,4.30
2023-03-27T19:14:41.476Z,4.40
2023-03-27T19:17:11.428Z,4.30
2023-03-27T19:19:39.536Z,4.30
2023-03-27T19:22:08.381Z,4.30
2023-03-27T19:24:37.062Z,4.20
2023-03-27T19:27:05.825Z,4.10
2023-03-27T19:29:35.706Z,4.10
2023-03-27T19:32:04.126Z,4.10
2023-03-27T19:34:42.061Z,4.10
2023-03-27T19:37:11.929Z,4.00
2023-03-27T19:39:40.062Z,4.00
2023-03-27T19:42:08.235Z,3.90
2023-03-27T19:44:38.538Z,3.90
2023-03-27T19:47:07.619Z,4.00
2023-03-27T19:49:36.229Z,4.00
2023-03-27T19:52:04.545Z,3.90
2023-03-27T19:54:32.695Z,3.90
2023-03-27T19:57:00.801Z,3.80
2023-03-27T19:59:31.174Z,3.80
2023-03-27T20:02:01.054Z,3.80
2023-03-27T20:04:29.276Z,3.70
2023-03-27T20:06:59.205Z,3.70
2023-03-27T20:09:27.471Z,3.70
2023-03-27T20:11:56.278Z,3.60
2023-03-27T20:14:24.370Z,3.70
2023-03-27T20:16:52.825Z,3.70
2023-03-27T20:19:29.643Z,3.70
2023-03-27T20:21:58.603Z,3.80
2023-03-27T20:24:27.229Z,3.70
2023-03-27T20:26:57.359Z,3.70
2023-03-27T20:29:25.969Z,3.60
2023-03-27T20:31:54.142Z,3.60
2023-03-27T20:34:24.263Z,3.60
2023-03-27T20:36:53.596Z,3.50
2023-03-27T20:39:22.084Z,3.50
2023-03-27T20:41:51.319Z,3.40
2023-03-27T20:44:19.719Z,3.50
2023-03-27T20:46:51.076Z,3.40
2023-03-27T20:51:57.753Z,3.40
2023-03-27T20:54:26.455Z,3.30
2023-03-27T20:56:55.111Z,3.20
2023-03-27T20:59:23.317Z,3.20
2023-03-27T21:01:51.483Z,3.10
2023-03-27T21:04:19.641Z,3.10
2023-03-27T21:06:47.739Z,3.10
2023-03-27T21:09:17.318Z,3.00
2023-03-27T21:11:45.721Z,3.00
2023-03-27T21:14:13.842Z,3.00
2023-03-27T21:16:42.296Z,2.90
2023-03-27T21:19:11.896Z,3.00
2023-03-27T21:21:40.529Z,3.00
2023-03-27T21:24:08.760Z,3.10
2023-03-27T21:26:38.827Z,3.20
2023-03-27T21:29:10.620Z,3.10
2023-03-27T21:31:38.864Z,3.20
2023-03-27T21:34:07.184Z,3.30
2023-03-27T21:36:35.696Z,3.20
2023-03-27T21:39:04.107Z,3.30
2023-03-27T21:41:32.997Z,3.10
2023-03-27T21:44:02.531Z,3.20
2023-03-27T21:46:30.722Z,3.20
2023-03-27T21:48:59.148Z,3.30
2023-03-27T21:51:27.715Z,3.20
2023-03-27T21:53:56.144Z,3.20
2023-03-27T21:56:24.545Z,3.20
2023-03-27T21:58:52.661Z,3.20
2023-03-27T22:01:22.585Z,3.10
2023-03-27T22:03:51.004Z,3.20
2023-03-27T22:06:19.478Z,3.10
2023-03-27T22:08:47.644Z,3.10
2023-03-27T22:11:15.738Z,3.10
2023-03-27T22:13:43.862Z,3.10
2023-03-27T22:16:14.304Z,3.20
2023-03-27T22:18:44.774Z,3.10
2023-03-27T22:21:17.672Z,3.10
2023-03-27T22:23:46.995Z,3.20
2023-03-27T22:26:15.099Z,3.20
2023-03-27T22:28:43.170Z,3.20
2023-03-27T22:31:11.986Z,3.20
2023-03-27T22:33:41.076Z,3.20
2023-03-27T22:36:12.500Z,3.30
2023-03-27T22:38:41.635Z,3.30
2023-03-27T22:41:11.403Z,3.30
2023-03-27T22:43:40.596Z,3.30
2023-03-27T22:46:10.876Z,3.20
2023-03-27T22:48:39.200Z,3.20
2023-03-27T22:51:08.419Z,3.10
2023-03-27T22:53:38.586Z,3.10
2023-03-27T22:56:08.178Z,3.00
2023-03-27T22:58:36.314Z,3.10
2023-03-27T23:01:06.390Z,3.00
2023-03-27T23:03:34.934Z,3.10
2023-03-27T23:06:03.514Z,3.00
2023-03-27T23:08:31.650Z,3.00
2023-03-27T23:11:03.036Z,3.00
2023-03-27T23:13:34.205Z,3.00
2023-03-27T23:16:02.908Z,2.90
2023-03-27T23:18:31.291Z,2.90
2023-03-27T23:21:01.219Z,2.90
2023-03-27T23:23:31.149Z,2.80
2023-03-27T23:26:01.501Z,2.80
2023-03-27T23:28:32.796Z,2.80
2023-03-27T23:31:03.483Z,2.70
2023-03-27T23:33:36.192Z,2.70
2023-03-27T23:36:07.333Z,2.80
2023-03-27T23:38:35.669Z,2.70
2023-03-27T23:41:06.990Z,2.70
2023-03-27T23:43:36.014Z,2.70
2023-03-27T23:46:05.951Z,2.70
2023-03-27T23:48:34.029Z,2.60
2023-03-27T23:51:02.104Z,2.60
2023-03-27T23:53:30.796Z,2.80
2023-03-27T23:56:00.712Z,2.70
2023-03-27T23:58:32.675Z,2.70
